createdAt,value
2017-01-14T10:46:12.528Z,43.34
2017-01-14T10:46:38.122Z,43.34
2017-01-14T10:47:03.703Z,43.15
2017-01-14T10:47:29.271Z,43.24
2017-01-14T10:47:54.921Z,43.05
2017-01-14T10:48:20.493Z,42.76
2017-01-14T10:48:46.063Z,42.57
2017-01-14T10:49:11.647Z,42.47
2017-01-14T10:49:37.206Z,42.76
2017-01-14T10:50:02.804Z,42.28
2017-01-14T10:50:28.394Z,42.19
2017-01-14T10:50:53.964Z,42.28
2017-01-14T10:51:19.521Z,42.47
2017-01-14T10:51:45.139Z,42.47
2017-01-14T10:52:10.715Z,42.76
2017-01-14T10:52:36.291Z,42.96
2017-01-14T10:53:01.863Z,42.28
2017-01-14T10:53:27.506Z,42.47
2017-01-14T10:53:53.027Z,42.47
2017-01-14T10:54:18.605Z,42.57
2017-01-14T10:54:44.214Z,42.28
2017-01-14T10:55:09.769Z,43.34
2017-01-14T10:55:35.336Z,43.15
2017-01-14T10:56:00.912Z,43.24
2017-01-14T10:56:26.533Z,43.34
2017-01-14T10:56:52.151Z,43.15
2017-01-14T10:57:17.719Z,43.34
2017-01-14T10:57:43.288Z,43.63
2017-01-14T10:58:08.855Z,43.34
2017-01-14T10:58:34.425Z,43.34
2017-01-14T10:59:00.003Z,42.86
2017-01-14T10:59:25.565Z,43.24
2017-01-14T10:59:51.169Z,43.44
2017-01-14T11:00:16.768Z,43.05
2017-01-14T11:00:42.264Z,43.24
2017-01-14T11:01:07.839Z,43.24
2017-01-14T11:01:33.409Z,43.24
2017-01-14T11:01:59.056Z,43.15
2017-01-14T11:02:24.634Z,43.05
2017-01-14T11:02:50.198Z,43.15
2017-01-14T11:03:15.917Z,43.34
2017-01-14T11:03:42.171Z,43.15
2017-01-14T11:04:07.045Z,42.86
2017-01-14T11:04:32.694Z,42.19
2017-01-14T11:04:58.264Z,41.99
2017-01-14T11:05:23.837Z,41.71
2017-01-14T11:05:49.392Z,41.71
2017-01-14T11:06:14.994Z,41.41
2017-01-14T11:06:40.630Z,41.71
2017-01-14T11:07:06.209Z,41.71
2017-01-14T11:07:31.882Z,42.09
2017-01-14T11:07:57.456Z,42.67
2017-01-14T11:08:23.024Z,42.57
2017-01-14T11:08:48.606Z,42.76
2017-01-14T11:09:14.162Z,43.24
2017-01-14T11:09:39.769Z,42.96
2017-01-14T11:10:05.358Z,42.76
2017-01-14T11:10:30.937Z,42.97
2017-01-14T11:10:56.510Z,42.96
2017-01-14T11:11:22.083Z,43.54
2017-01-14T11:11:47.639Z,43.63
2017-01-14T11:12:13.211Z,43.24
2017-01-14T11:12:38.777Z,43.24
2017-01-14T11:13:04.324Z,43.15
2017-01-14T11:13:29.963Z,43.44
2017-01-14T11:13:55.706Z,43.44
2017-01-14T11:14:21.260Z,42.67
2017-01-14T11:14:46.831Z,42.47
2017-01-14T11:15:12.383Z,42.4
2017-01-14T11:15:37.947Z,43.17
2017-01-14T11:16:03.563Z,43.05
2017-01-14T11:16:29.127Z,43.17
2017-01-14T11:16:54.700Z,43.15
2017-01-14T11:17:20.271Z,43.65
2017-01-14T11:17:45.855Z,42.88
2017-01-14T11:18:11.581Z,43.27
2017-01-14T11:18:37.150Z,43.55
2017-01-14T11:19:02.710Z,43.37
2017-01-14T11:19:28.280Z,43.37
2017-01-14T11:19:53.833Z,43.27
2017-01-14T11:20:19.421Z,43.46
2017-01-14T11:20:45.056Z,43.27
2017-01-14T11:21:10.632Z,43.55
2017-01-14T11:21:36.202Z,42.97
2017-01-14T11:22:01.776Z,42.97
2017-01-14T11:22:27.392Z,42.88
2017-01-14T11:22:52.956Z,42.79
2017-01-14T11:23:18.556Z,42.69
2017-01-14T11:23:44.197Z,42.69
2017-01-14T11:24:09.782Z,42.69
2017-01-14T11:24:35.362Z,42.97
2017-01-14T11:25:01.053Z,42.97
2017-01-14T11:25:26.905Z,42.97
2017-01-14T11:25:52.506Z,43.07
2017-01-14T11:26:18.091Z,43.27
2017-01-14T11:26:43.675Z,42.88
2017-01-14T11:27:09.228Z,43.07
2017-01-14T11:27:34.811Z,43.27
2017-01-14T11:28:00.570Z,43.55
2017-01-14T11:28:26.176Z,43.17
2017-01-14T11:28:51.725Z,43.46
2017-01-14T11:29:17.299Z,43.27
2017-01-14T11:29:42.942Z,43.27
2017-01-14T11:30:08.532Z,43.17
2017-01-14T11:30:34.104Z,43.37
2017-01-14T11:30:59.717Z,43.55
2017-01-14T11:31:25.322Z,43.27
2017-01-14T11:31:50.898Z,43.27
2017-01-14T11:32:16.476Z,43.07
2017-01-14T11:32:42.067Z,43.55
2017-01-14T11:33:07.640Z,43.27
2017-01-14T11:33:33.212Z,43.27
2017-01-14T11:33:58.810Z,43.46
2017-01-14T11:34:24.391Z,43.37
2017-01-14T11:34:49.949Z,43.27
2017-01-14T11:35:16.061Z,42.88
2017-01-14T11:35:41.651Z,43.65
2017-01-14T11:36:07.257Z,43.37
2017-01-14T11:36:32.843Z,42.69
2017-01-14T11:36:58.418Z,42.88
2017-01-14T11:37:24.003Z,43.65
2017-01-14T11:37:49.607Z,43.17
2017-01-14T11:38:15.178Z,43.17
2017-01-14T11:38:40.743Z,43.46
2017-01-14T11:39:06.398Z,43.07
2017-01-14T11:39:31.968Z,43.46
2017-01-14T11:39:57.658Z,43.37
2017-01-14T11:40:23.252Z,43.37
2017-01-14T11:40:48.822Z,43.37
2017-01-14T11:41:14.389Z,43.37
2017-01-14T11:41:40.058Z,43.17
2017-01-14T11:42:05.637Z,42.3
2017-01-14T11:42:31.208Z,42.79
2017-01-14T11:42:56.953Z,42.59
2017-01-14T11:43:22.534Z,42.59
2017-01-14T11:43:48.269Z,43.07
2017-01-14T11:44:13.834Z,42.88
2017-01-14T11:44:39.408Z,42.88
2017-01-14T11:45:05.085Z,43.17
2017-01-14T11:45:30.649Z,43.07
2017-01-14T11:45:56.211Z,42.88
2017-01-14T11:46:22.116Z,42.88
2017-01-14T11:46:47.735Z,42.69
2017-01-14T11:47:13.717Z,42.88
2017-01-14T11:47:39.283Z,43.07
2017-01-14T11:48:04.858Z,42.88
2017-01-14T11:48:30.444Z,42.88
2017-01-14T11:48:56.041Z,42.4
2017-01-14T11:49:21.606Z,42.3
2017-01-14T11:49:47.168Z,42.59
2017-01-14T11:50:12.791Z,42.69
2017-01-14T11:50:38.395Z,42.3
2017-01-14T11:51:04.182Z,42.21
2017-01-14T11:51:29.751Z,42.4
2017-01-14T11:51:55.328Z,42.59
2017-01-14T11:52:20.937Z,42.11
2017-01-14T11:52:46.586Z,42.4
2017-01-14T11:53:12.152Z,42.4
2017-01-14T11:53:37.718Z,42.3
2017-01-14T11:54:03.428Z,42.4
2017-01-14T11:54:28.986Z,42.3
2017-01-14T11:54:54.589Z,42.69
2017-01-14T11:55:20.173Z,42.59
2017-01-14T11:55:45.754Z,42.59
2017-01-14T11:56:11.320Z,42.49
2017-01-14T11:56:36.939Z,42.3
2017-01-14T11:57:02.492Z,42.4
2017-01-14T11:57:28.101Z,42.69
2017-01-14T11:57:53.689Z,42.3
2017-01-14T11:58:19.253Z,42.3
2017-01-14T11:58:44.960Z,42.59
2017-01-14T11:59:43.101Z,42.4
2017-01-14T12:00:08.711Z,42.11
2017-01-14T12:00:34.337Z,42.49
2017-01-14T12:00:59.910Z,42.21
2017-01-14T12:01:25.479Z,42.3
2017-01-14T12:01:51.108Z,42.3
2017-01-14T12:02:18.353Z,42.11
2017-01-14T12:02:43.868Z,42.4
2017-01-14T12:03:09.462Z,42.21
2017-01-14T12:03:35.150Z,42.21
2017-01-14T12:04:00.736Z,42.4
2017-01-14T12:04:26.384Z,42.21
2017-01-14T12:04:52.035Z,42.21
2017-01-14T12:05:17.610Z,42.21
2017-01-14T12:05:43.241Z,42.21
2017-01-14T12:06:08.939Z,42.4
2017-01-14T12:06:34.507Z,42.49
2017-01-14T12:07:00.138Z,42.4
2017-01-14T12:07:25.722Z,42.3
2017-01-14T12:07:51.271Z,42.11
2017-01-14T12:08:16.939Z,42.21
2017-01-14T12:08:42.678Z,42.79
2017-01-14T12:09:08.297Z,42.59
2017-01-14T12:09:33.907Z,43.55
2017-01-14T12:09:59.477Z,43.46
2017-01-14T12:10:25.105Z,43.17
2017-01-14T12:10:50.695Z,43.27
2017-01-14T12:11:16.272Z,43.65
2017-01-14T12:11:41.901Z,43.46
2017-01-14T12:12:45.308Z,43.17
2017-01-14T12:13:10.917Z,43.37
2017-01-14T12:13:36.507Z,43.55
2017-01-14T12:14:02.097Z,43.46
2017-01-14T12:14:27.661Z,43.46
2017-01-14T12:14:53.253Z,43.55
2017-01-14T12:15:18.806Z,43.55
2017-01-14T12:15:44.352Z,43.55
2017-01-14T12:16:09.925Z,43.37
2017-01-14T12:16:35.670Z,43.46
2017-01-14T12:17:01.234Z,43.46
2017-01-14T12:17:26.804Z,43.46
2017-01-14T12:17:52.557Z,43.37
2017-01-14T12:18:18.220Z,43.37
2017-01-14T12:18:43.779Z,43.37
2017-01-14T12:19:09.346Z,43.65
2017-01-14T12:19:34.916Z,43.37
2017-01-14T12:20:00.476Z,43.75
2017-01-14T12:20:26.105Z,43.85
2017-01-14T12:20:51.672Z,43.55
2017-01-14T12:21:17.241Z,43.65
2017-01-14T12:21:42.952Z,43.55
2017-01-14T12:22:08.541Z,43.37
2017-01-14T12:22:34.117Z,43.65
2017-01-14T12:22:59.671Z,43.37
2017-01-14T12:23:25.350Z,43.46
2017-01-14T12:23:50.942Z,43.37
2017-01-14T12:24:16.543Z,43.37
2017-01-14T12:24:42.120Z,43.07
2017-01-14T12:25:07.678Z,43.17
2017-01-14T12:25:33.242Z,43.65
2017-01-14T12:25:58.802Z,43.27
2017-01-14T12:26:24.368Z,43.55
2017-01-14T12:26:49.931Z,43.27
2017-01-14T12:27:15.532Z,43.27
2017-01-14T12:27:41.109Z,43.37
2017-01-14T12:28:06.731Z,43.17
2017-01-14T12:28:32.377Z,43.17
2017-01-14T12:28:57.951Z,43.55
2017-01-14T12:29:23.562Z,43.27
2017-01-14T12:29:49.177Z,43.37
2017-01-14T12:30:14.762Z,43.46
2017-01-14T12:30:40.321Z,43.55
2017-01-14T12:31:05.942Z,43.55
2017-01-14T12:31:31.506Z,43.65
2017-01-14T12:31:57.096Z,43.55
2017-01-14T12:32:22.719Z,43.75
2017-01-14T12:32:48.296Z,43.55
2017-01-14T12:33:13.874Z,43.37
2017-01-14T12:33:39.451Z,43.46
2017-01-14T12:34:05.103Z,41.63
2017-01-14T12:34:30.700Z,39.41
2017-01-14T12:34:56.270Z,37.39
2017-01-14T12:35:21.847Z,36.31
2017-01-14T12:35:47.415Z,35.35
2017-01-14T12:36:12.980Z,34.84
2017-01-14T12:36:38.588Z,34
2017-01-14T12:37:04.270Z,33.31
2017-01-14T12:37:29.871Z,33.02
2017-01-14T12:37:55.482Z,32.34
2017-01-14T12:38:21.050Z,32.81
2017-01-14T12:38:46.672Z,33.29
2017-01-14T12:39:12.242Z,33.29
2017-01-14T12:39:37.808Z,34.06
2017-01-14T12:40:03.466Z,33.97
2017-01-14T12:40:29.069Z,34.16
2017-01-14T12:40:54.639Z,34.45
2017-01-14T12:41:20.330Z,34.54
2017-01-14T12:41:45.909Z,34.74
2017-01-14T12:42:11.477Z,35.02
2017-01-14T12:42:37.040Z,35.14
2017-01-14T12:43:02.705Z,35.42
2017-01-14T12:43:28.556Z,35.81
2017-01-14T12:43:54.133Z,35.81
2017-01-14T12:44:19.701Z,36.29
2017-01-14T12:44:45.279Z,37.26
2017-01-14T12:45:10.844Z,37.74
2017-01-14T12:45:36.418Z,38.02
2017-01-14T12:46:01.988Z,38.41
2017-01-14T12:46:27.561Z,38.31
2017-01-14T12:46:53.191Z,38.31
2017-01-14T12:47:18.746Z,39.09
2017-01-14T12:47:44.320Z,39.56
2017-01-14T12:48:09.890Z,39.29
2017-01-14T12:48:35.474Z,39.47
2017-01-14T12:49:01.072Z,40.07
2017-01-14T12:49:26.645Z,39.87
2017-01-14T12:49:52.230Z,40.14
2017-01-14T12:50:17.778Z,40.36
2017-01-14T12:50:43.351Z,38.24
2017-01-14T12:51:08.919Z,35.83
2017-01-14T12:51:34.567Z,36.58
2017-01-14T12:52:00.157Z,37.26
2017-01-14T12:52:25.727Z,37.06
2017-01-14T12:52:51.316Z,37.45
2017-01-14T12:53:16.935Z,37.16
2017-01-14T12:53:42.580Z,37.74
2017-01-14T12:54:08.147Z,38.22
2017-01-14T12:54:33.705Z,38.41
2017-01-14T12:54:59.276Z,38.53
2017-01-14T12:55:24.835Z,38.91
2017-01-14T12:55:50.418Z,38.91
2017-01-14T12:56:15.984Z,39.2
2017-01-14T12:56:41.584Z,39.29
2017-01-14T12:57:07.139Z,39.59
2017-01-14T12:57:32.710Z,40.36
2017-01-14T12:57:58.277Z,40.26
2017-01-14T12:58:23.844Z,40.36
2017-01-14T12:58:49.430Z,41.13
2017-01-14T12:59:15.007Z,41.32
2017-01-14T12:59:40.647Z,41.41
2017-01-14T13:00:06.233Z,41.03
2017-01-14T13:00:31.794Z,40.84
2017-01-14T13:00:57.351Z,40.74
2017-01-14T13:01:22.948Z,40.94
2017-01-14T13:01:48.571Z,41.51
2017-01-14T13:02:14.144Z,42.57
2017-01-14T13:02:39.956Z,42.38
2017-01-14T13:03:05.548Z,42.57
2017-01-14T13:03:31.111Z,42.19
2017-01-14T13:03:56.771Z,41.89
2017-01-14T13:04:22.351Z,41.8
2017-01-14T13:04:47.920Z,41.89
2017-01-14T13:05:13.621Z,42.67
2017-01-14T13:05:39.163Z,42.47
2017-01-14T13:06:04.725Z,42.67
2017-01-14T13:06:30.319Z,41.71
2017-01-14T13:06:55.887Z,41.99
2017-01-14T13:07:21.461Z,42.67
2017-01-14T13:07:47.035Z,42.76
2017-01-14T13:08:12.663Z,42.38
2017-01-14T13:08:38.226Z,42.47
2017-01-14T13:09:03.800Z,41.99
2017-01-14T13:09:29.392Z,42.57
2017-01-14T13:09:54.963Z,41.71
2017-01-14T13:10:58.198Z,41.99
2017-01-14T13:11:23.770Z,41.71
2017-01-14T13:11:49.350Z,41.63
2017-01-14T13:12:14.935Z,41.99
2017-01-14T13:12:40.511Z,41.63
2017-01-14T13:13:06.060Z,41.71
2017-01-14T13:13:31.621Z,41.61
2017-01-14T13:13:57.179Z,41.89
2017-01-14T13:14:22.871Z,41.51
2017-01-14T13:14:48.442Z,41.63
2017-01-14T13:15:13.995Z,41.63
2017-01-14T13:16:27.135Z,42.4
2017-01-14T13:16:52.707Z,42.11
2017-01-14T13:17:18.409Z,42.3
2017-01-14T13:17:44.040Z,42.49
2017-01-14T13:18:09.609Z,42.3
2017-01-14T13:18:35.329Z,42.21
2017-01-14T13:19:00.897Z,42.59
2017-01-14T13:19:27.220Z,42.69
2017-01-14T13:19:52.807Z,42.69
2017-01-14T13:20:18.915Z,42.59
2017-01-14T13:20:44.494Z,42.59
2017-01-14T13:21:10.065Z,42.59
2017-01-14T13:21:36.259Z,42.59
2017-01-14T13:22:01.820Z,42.59
2017-01-14T13:22:28.052Z,42.11
2017-01-14T13:22:53.639Z,42.02
2017-01-14T13:23:19.198Z,42.21
2017-01-14T13:23:45.424Z,42.21
2017-01-14T13:24:10.987Z,42.69
2017-01-14T13:24:37.313Z,41.82
2017-01-14T13:25:02.878Z,42.11
2017-01-14T13:25:29.085Z,42.59
2017-01-14T13:25:54.673Z,42.59
2017-01-14T13:26:20.269Z,41.63
2017-01-14T13:26:46.320Z,41.53
2017-01-14T13:27:11.874Z,41.92
2017-01-14T13:27:38.162Z,41.82
2017-01-14T13:28:03.732Z,41.72
2017-01-14T13:28:29.466Z,41.82
2017-01-14T13:28:55.468Z,41.92
2017-01-14T13:29:21.039Z,42.79
2017-01-14T13:29:47.300Z,42.11
2017-01-14T13:30:12.860Z,41.82
2017-01-14T13:30:39.087Z,41.92
2017-01-14T13:31:04.681Z,41.72
2017-01-14T13:31:30.235Z,41.53
2017-01-14T13:31:56.530Z,41.92
2017-01-14T13:32:22.081Z,41.82
2017-01-14T13:32:48.270Z,42.3
2017-01-14T13:33:13.855Z,42.02
2017-01-14T13:33:39.456Z,41.72
2017-01-14T13:34:05.625Z,41.92
2017-01-14T13:34:31.296Z,41.72
2017-01-14T13:35:40.159Z,42.69
2017-01-14T13:36:05.676Z,41.82
2017-01-14T13:36:31.263Z,41.63
2017-01-14T13:36:56.827Z,41.72
2017-01-14T13:37:22.386Z,41.92
2017-01-14T13:37:48.029Z,42.4
2017-01-14T13:38:13.587Z,42.4
2017-01-14T13:38:39.177Z,42.69
2017-01-14T13:39:04.749Z,42.11
2017-01-14T13:39:30.424Z,41.92
2017-01-14T13:39:55.997Z,42.02
2017-01-14T13:40:21.551Z,42.02
2017-01-14T13:40:47.119Z,41.72
2017-01-14T13:41:12.661Z,41.92
2017-01-14T13:41:38.242Z,42.02
2017-01-14T13:42:03.821Z,41.72
2017-01-14T13:42:29.394Z,41.63
2017-01-14T13:42:54.982Z,41.92
2017-01-14T13:43:20.596Z,42.59
2017-01-14T13:43:46.152Z,41.82
2017-01-14T13:44:11.883Z,42.02
2017-01-14T13:44:37.512Z,42.59
2017-01-14T13:45:03.077Z,42.21
2017-01-14T13:45:28.655Z,42.69
2017-01-14T13:45:54.214Z,42.4
2017-01-14T13:46:19.777Z,42.11
2017-01-14T13:46:45.367Z,42.69
2017-01-14T13:47:11.048Z,42.02
2017-01-14T13:47:36.620Z,42.59
2017-01-14T13:48:02.173Z,42.11
2017-01-14T13:48:27.794Z,42.4
2017-01-14T13:48:53.459Z,42.49
2017-01-14T13:49:19.133Z,42.59
2017-01-14T13:49:44.775Z,42.02
2017-01-14T13:50:10.330Z,42.02
2017-01-14T13:51:03.372Z,42.69
2017-01-14T13:51:28.951Z,41.82
2017-01-14T13:51:54.659Z,42.59
2017-01-14T13:52:20.225Z,42.59
2017-01-14T13:52:45.855Z,42.59
2017-01-14T13:53:11.486Z,42.11
2017-01-14T13:53:37.084Z,42.3
2017-01-14T13:54:02.675Z,42.21
2017-01-14T13:54:28.250Z,42.4
2017-01-14T13:54:53.823Z,42.3
2017-01-14T13:55:19.543Z,42.3
2017-01-14T13:55:45.107Z,42.49
2017-01-14T13:56:10.677Z,42.59
2017-01-14T13:56:36.266Z,42.59
2017-01-14T13:57:01.857Z,42.49
2017-01-14T13:57:27.447Z,42.11
2017-01-14T13:57:53.158Z,42.49
2017-01-14T13:58:18.716Z,42.02
2017-01-14T13:58:44.505Z,42.11
2017-01-14T13:59:10.129Z,42.3
2017-01-14T13:59:35.655Z,42.49
2017-01-14T14:00:01.237Z,42.21
2017-01-14T14:00:26.938Z,42.3
2017-01-14T14:00:52.526Z,42.3
2017-01-14T14:01:18.080Z,42.21
2017-01-14T14:01:43.644Z,42.4
2017-01-14T14:02:09.322Z,42.59
2017-01-14T14:02:34.892Z,42.49
2017-01-14T14:03:00.459Z,42.4
2017-01-14T14:03:26.042Z,42.21
2017-01-14T14:03:51.581Z,42.11
2017-01-14T14:04:17.155Z,42.4
2017-01-14T14:04:42.753Z,42.3
2017-01-14T14:05:08.349Z,42.4
2017-01-14T14:05:33.961Z,42.3
2017-01-14T14:05:59.780Z,42.49
2017-01-14T14:06:25.435Z,42.4
2017-01-14T14:06:51.104Z,42.3
2017-01-14T14:07:16.673Z,42.02
2017-01-14T14:07:42.280Z,42.3
2017-01-14T14:08:07.956Z,42.11
2017-01-14T14:08:33.527Z,42.3
2017-01-14T14:08:59.125Z,42.59
2017-01-14T14:09:24.794Z,42.4
2017-01-14T14:10:33.237Z,42.11
2017-01-14T14:10:58.804Z,42.49
2017-01-14T14:11:24.359Z,42.3
2017-01-14T14:11:49.928Z,42.21
2017-01-14T14:12:15.491Z,42.59
2017-01-14T14:12:41.093Z,42.69
2017-01-14T14:13:06.671Z,42.3
2017-01-14T14:13:32.229Z,42.3
2017-01-14T14:13:57.837Z,42.11
2017-01-14T14:14:23.383Z,42.21
2017-01-14T14:14:49.094Z,42.3
2017-01-14T14:15:14.631Z,42.21
2017-01-14T14:15:40.175Z,42.3
2017-01-14T14:16:05.750Z,42.11
2017-01-14T14:16:31.374Z,42.3
2017-01-14T14:16:56.952Z,42.11
2017-01-14T14:17:22.557Z,42.11
2017-01-14T14:17:48.281Z,42.4
2017-01-14T14:18:13.870Z,42.4
2017-01-14T14:18:39.504Z,42.3
2017-01-14T14:19:05.042Z,42.11
2017-01-14T14:19:30.607Z,42.11
2017-01-14T14:19:56.273Z,42.02
2017-01-14T14:20:21.874Z,42.3
2017-01-14T14:20:47.471Z,42.11
2017-01-14T14:21:13.039Z,42.4
2017-01-14T14:21:38.594Z,42.11
2017-01-14T14:22:04.217Z,42.02
2017-01-14T14:22:30.013Z,42.3
2017-01-14T14:22:55.749Z,42.59
2017-01-14T14:23:21.332Z,42.59
2017-01-14T14:23:46.900Z,42.4
2017-01-14T14:24:12.562Z,42.49
2017-01-14T14:24:38.113Z,42.3
2017-01-14T14:25:03.772Z,42.3
2017-01-14T14:25:29.346Z,42.11
2017-01-14T14:25:54.932Z,42.11
2017-01-14T14:26:20.559Z,42.49
2017-01-14T14:26:46.155Z,42.3
2017-01-14T14:27:11.731Z,42.21
2017-01-14T14:27:37.296Z,42.3
2017-01-14T14:28:02.909Z,42.3
2017-01-14T14:28:28.497Z,42.21
2017-01-14T14:28:54.078Z,42.11
2017-01-14T14:29:19.639Z,42.11
2017-01-14T14:29:45.346Z,42.11
2017-01-14T14:30:10.907Z,42.21
2017-01-14T14:30:36.486Z,42.11
2017-01-14T14:31:02.049Z,42.4
2017-01-14T14:31:27.764Z,42.11
2017-01-14T14:31:53.334Z,42.3
2017-01-14T14:32:18.962Z,42.21
2017-01-14T14:32:44.541Z,42.21
2017-01-14T14:33:10.119Z,42.3
2017-01-14T14:33:35.696Z,42.02
2017-01-14T14:34:01.286Z,42.21
2017-01-14T14:34:26.889Z,42.21
2017-01-14T14:34:52.449Z,42.49
2017-01-14T14:35:18.052Z,42.11
2017-01-14T14:35:43.634Z,42.4
2017-01-14T14:36:09.189Z,42.49
2017-01-14T14:36:34.800Z,42.4
2017-01-14T14:37:00.371Z,42.4
2017-01-14T14:37:25.970Z,42.59
2017-01-14T14:37:51.523Z,42.49
2017-01-14T14:38:17.090Z,42.3
2017-01-14T14:38:42.737Z,42.3
2017-01-14T14:39:08.332Z,42.3
2017-01-14T14:39:33.917Z,42.49
2017-01-14T14:39:59.621Z,42.11
2017-01-14T14:40:25.207Z,42.3
2017-01-14T14:40:50.752Z,42.21
2017-01-14T14:41:16.321Z,42.02
2017-01-14T14:41:41.951Z,42.21
2017-01-14T14:42:07.551Z,42.11
2017-01-14T14:42:33.120Z,42.4
2017-01-14T14:42:58.741Z,42.59
2017-01-14T14:43:24.367Z,42.3
2017-01-14T14:43:49.940Z,42.49
2017-01-14T14:44:15.509Z,42.69
2017-01-14T14:44:41.068Z,42.49
2017-01-14T14:45:06.627Z,42.4
2017-01-14T14:45:32.198Z,42.4
2017-01-14T14:45:57.768Z,42.88
2017-01-14T14:46:23.339Z,42.88
2017-01-14T14:46:48.950Z,42.97
2017-01-14T14:47:14.530Z,43.46
2017-01-14T14:47:40.117Z,43.37
2017-01-14T14:48:05.911Z,43.46
2017-01-14T14:48:31.478Z,43.27
2017-01-14T14:48:57.144Z,43.17
2017-01-14T14:49:50.275Z,43.65
2017-01-14T14:50:15.877Z,43.27
2017-01-14T14:50:41.445Z,43.55
2017-01-14T14:51:07.023Z,43.55
2017-01-14T14:51:32.576Z,43.55
2017-01-14T14:52:35.846Z,43.37
2017-01-14T14:53:01.427Z,43.37
2017-01-14T14:53:26.988Z,43.46
2017-01-14T14:53:52.543Z,43.55
2017-01-14T14:54:18.267Z,43.55
2017-01-14T14:54:43.861Z,43.37
2017-01-14T14:55:09.420Z,43.46
2017-01-14T14:55:35.088Z,43.46
2017-01-14T14:56:00.661Z,43.46
2017-01-14T14:56:26.216Z,43.37
2017-01-14T14:56:51.919Z,43.46
2017-01-14T14:57:17.504Z,43.55
2017-01-14T14:57:43.071Z,43.17
2017-01-14T14:58:08.650Z,43.27
2017-01-14T14:58:34.236Z,43.27
2017-01-14T14:58:59.800Z,43.55
2017-01-14T14:59:25.354Z,43.55
2017-01-14T14:59:50.928Z,43.65
2017-01-14T15:00:16.499Z,43.07
2017-01-14T15:00:42.056Z,43.17
2017-01-14T15:01:07.621Z,43.27
2017-01-14T15:01:33.189Z,43.17
2017-01-14T15:01:58.770Z,43.27
2017-01-14T15:02:24.429Z,43.27
2017-01-14T15:02:49.979Z,43.55
2017-01-14T15:03:15.672Z,43.27
2017-01-14T15:03:41.348Z,43.55
2017-01-14T15:04:06.931Z,43.65
2017-01-14T15:04:32.515Z,43.55
2017-01-14T15:04:58.142Z,43.17
2017-01-14T15:05:23.682Z,43.46
2017-01-14T15:05:49.244Z,43.37
2017-01-14T15:06:14.871Z,43.46
2017-01-14T15:06:40.474Z,43.27
2017-01-14T15:07:06.058Z,43.37
2017-01-14T15:07:31.631Z,43.55
2017-01-14T15:07:57.296Z,43.65
2017-01-14T15:08:22.891Z,43.46
2017-01-14T15:08:48.443Z,43.37
2017-01-14T15:09:14.109Z,43.37
2017-01-14T15:09:39.703Z,43.37
2017-01-14T15:10:05.257Z,43.27
2017-01-14T15:10:30.847Z,43.46
2017-01-14T15:10:56.477Z,43.27
2017-01-14T15:11:22.051Z,43.37
2017-01-14T15:11:47.623Z,43.75
2017-01-14T15:12:13.200Z,43.65
2017-01-14T15:12:38.818Z,43.46
2017-01-14T15:13:04.521Z,43.55
2017-01-14T15:13:30.070Z,43.37
2017-01-14T15:13:55.642Z,43.07
2017-01-14T15:14:21.342Z,43.17
2017-01-14T15:14:46.907Z,43.07
2017-01-14T15:15:12.467Z,43.55
2017-01-14T15:15:38.040Z,43.27
2017-01-14T15:16:03.728Z,43.07
2017-01-14T15:16:29.287Z,42.97
2017-01-14T15:16:54.858Z,42.97
2017-01-14T15:17:20.435Z,42.97
2017-01-14T15:17:46.002Z,43.27
2017-01-14T15:18:11.689Z,43.17
2017-01-14T15:18:37.266Z,43.55
2017-01-14T15:19:02.865Z,43.46
2017-01-14T15:19:28.441Z,43.27
2017-01-14T15:19:53.999Z,43.65
2017-01-14T15:20:19.741Z,43.37
2017-01-14T15:20:45.316Z,43.46
2017-01-14T15:21:10.881Z,43.55
2017-01-14T15:21:36.452Z,43.46
2017-01-14T15:22:02.030Z,43.37
2017-01-14T15:22:27.602Z,43.27
2017-01-14T15:22:53.177Z,43.17
2017-01-14T15:23:18.823Z,43.17
2017-01-14T15:23:44.391Z,43.55
2017-01-14T15:24:09.992Z,43.17
2017-01-14T15:24:35.547Z,43.17
2017-01-14T15:25:01.108Z,43.46
2017-01-14T15:26:04.319Z,43.27
2017-01-14T15:26:29.872Z,43.07
2017-01-14T15:26:55.443Z,43.07
2017-01-14T15:27:21.032Z,43.37
2017-01-14T15:27:46.606Z,43.07
2017-01-14T15:28:12.173Z,43.27
2017-01-14T15:28:37.818Z,43.27
2017-01-14T15:29:03.400Z,43.07
2017-01-14T15:29:29.026Z,43.27
2017-01-14T15:29:54.680Z,43.37
2017-01-14T15:30:20.241Z,43.46
2017-01-14T15:30:45.807Z,43.46
2017-01-14T15:31:11.380Z,43.46
2017-01-14T15:31:36.959Z,43.46
2017-01-14T15:32:02.508Z,43.27
2017-01-14T15:32:28.171Z,43.55
2017-01-14T15:32:53.748Z,43.27
2017-01-14T15:33:19.320Z,43.27
2017-01-14T15:33:44.917Z,43.17
2017-01-14T15:34:10.562Z,43.46
2017-01-14T15:34:36.124Z,43.17
2017-01-14T15:35:01.684Z,43.46
2017-01-14T15:35:27.247Z,43.46
2017-01-14T15:35:52.856Z,43.55
2017-01-14T15:36:18.484Z,43.46
2017-01-14T15:36:44.106Z,43.46
2017-01-14T15:37:09.727Z,43.37
2017-01-14T15:37:35.321Z,43.46
2017-01-14T15:38:00.909Z,43.46
2017-01-14T15:38:26.508Z,43.37
2017-01-14T15:38:52.115Z,43.65
2017-01-14T15:39:17.733Z,43.27
2017-01-14T15:39:43.352Z,43.17
2017-01-14T15:40:09.006Z,43.17
2017-01-14T15:40:34.744Z,43.27
2017-01-14T15:41:00.369Z,43.17
2017-01-14T15:41:25.980Z,43.65
2017-01-14T15:41:51.585Z,43.55
2017-01-14T15:42:17.183Z,43.46
2017-01-14T15:42:42.886Z,43.65
2017-01-14T15:43:08.597Z,43.07
2017-01-14T15:43:34.206Z,43.55
2017-01-14T15:43:59.830Z,43.46
2017-01-14T15:44:25.441Z,43.65
2017-01-14T15:44:51.215Z,43.55
2017-01-14T15:45:16.802Z,43.46
2017-01-14T15:45:43.007Z,43.46
2017-01-14T15:46:08.792Z,43.55
2017-01-14T15:46:34.415Z,43.37
2017-01-14T15:47:00.026Z,43.27
2017-01-14T15:47:25.657Z,43.17
2017-01-14T15:47:51.262Z,43.27
2017-01-14T15:48:17.012Z,43.17
2017-01-14T15:48:43.220Z,43.07
2017-01-14T15:49:08.809Z,43.07
2017-01-14T15:49:34.386Z,43.07
2017-01-14T15:49:59.942Z,43.37
2017-01-14T15:50:25.538Z,43.46
2017-01-14T15:50:51.107Z,43.37
2017-01-14T15:51:16.773Z,43.17
2017-01-14T15:51:42.399Z,43.27
2017-01-14T15:52:07.928Z,43.85
2017-01-14T15:52:33.548Z,44.52
2017-01-14T15:52:59.141Z,44.81
2017-01-14T15:53:24.718Z,44.9
2017-01-14T15:53:50.327Z,44.42
2017-01-14T15:54:15.897Z,44.04
2017-01-14T15:54:41.464Z,43.85
2017-01-14T15:55:07.143Z,43.37
2017-01-14T15:55:32.707Z,43.27
2017-01-14T15:55:58.294Z,43.46
2017-01-14T15:56:23.880Z,43.46
2017-01-14T15:56:49.467Z,43.55
2017-01-14T15:57:15.034Z,43.46
2017-01-14T15:57:40.621Z,43.46
2017-01-14T15:58:06.208Z,43.17
2017-01-14T15:58:31.795Z,43.37
2017-01-14T15:58:57.361Z,43.37
2017-01-14T15:59:23.057Z,43.55
2017-01-14T15:59:48.737Z,43.55
2017-01-14T16:00:14.302Z,43.37
2017-01-14T16:00:39.935Z,43.46
2017-01-14T16:01:05.528Z,43.37
2017-01-14T16:01:31.102Z,43.55
2017-01-14T16:01:57.036Z,43.55
2017-01-14T16:02:22.615Z,43.55
2017-01-14T16:02:48.233Z,43.37
2017-01-14T16:03:13.781Z,43.46
2017-01-14T16:03:39.360Z,43.37
2017-01-14T16:04:05.014Z,43.27
2017-01-14T16:04:30.630Z,43.46
2017-01-14T16:04:56.191Z,43.46
2017-01-14T16:05:21.752Z,43.37
2017-01-14T16:05:47.454Z,43.55
2017-01-14T16:06:13.062Z,43.17
2017-01-14T16:06:38.795Z,43.17
2017-01-14T16:07:04.298Z,43.17
2017-01-14T16:07:29.883Z,43.75
2017-01-14T16:07:55.564Z,43.27
2017-01-14T16:08:21.121Z,43.37
2017-01-14T16:08:46.740Z,43.55
2017-01-14T16:09:12.382Z,43.27
2017-01-14T16:09:37.979Z,43.65
2017-01-14T16:10:03.607Z,43.94
2017-01-14T16:10:29.323Z,44.04
2017-01-14T16:10:54.906Z,44.04
2017-01-14T16:11:20.438Z,43.85
2017-01-14T16:11:46.077Z,43.55
2017-01-14T16:12:11.661Z,43.46
2017-01-14T16:12:37.466Z,43.85
2017-01-14T16:13:03.034Z,44.04
2017-01-14T16:13:28.736Z,44.23
2017-01-14T16:13:54.311Z,44.42
2017-01-14T16:14:19.883Z,44.52
2017-01-14T16:14:45.462Z,44.52
2017-01-14T16:15:11.054Z,44.62
2017-01-14T16:15:36.647Z,44.23
2017-01-14T16:16:02.232Z,44.42
2017-01-14T16:16:27.936Z,44.52
2017-01-14T16:16:53.584Z,44.42
2017-01-14T16:17:19.151Z,44.81
2017-01-14T16:17:44.707Z,44.32
2017-01-14T16:18:10.282Z,44.9
2017-01-14T16:18:35.881Z,44.81
2017-01-14T16:19:01.439Z,44.71
2017-01-14T16:19:27.213Z,44.62
2017-01-14T16:19:52.813Z,44.9
2017-01-14T16:20:18.383Z,44.71
2017-01-14T16:20:43.981Z,44.81
2017-01-14T16:21:09.579Z,44.71
2017-01-14T16:21:35.151Z,44.9
2017-01-14T16:22:00.769Z,44.81
2017-01-14T16:22:26.417Z,44.81
2017-01-14T16:22:52.019Z,44.81
2017-01-14T16:23:17.691Z,44.81